createdAt,value
2018-08-19T00:00:36.993Z,15.13
2018-08-19T00:03:09.672Z,13.87
2018-08-19T00:05:40.353Z,12.63
2018-08-19T00:08:12.392Z,14.57
2018-08-19T00:11:07.020Z,13.20
2018-08-19T00:13:38.838Z,14.00
2018-08-19T00:16:10.755Z,12.60
2018-08-19T00:18:41.198Z,14.37
2018-08-19T00:21:12.550Z,15.30
2018-08-19T00:23:48.040Z,13.27
2018-08-19T00:26:18.768Z,15.70
2018-08-19T00:28:49.492Z,17.27
2018-08-19T00:31:19.964Z,17.30
2018-08-19T00:33:50.334Z,14.13
2018-08-19T00:36:28.168Z,15.83
2018-08-19T00:38:58.379Z,16.30
2018-08-19T00:41:28.977Z,17.37
2018-08-19T00:43:59.227Z,15.30
2018-08-19T00:46:32.094Z,16.53
2018-08-19T00:49:02.937Z,22.43
2018-08-19T00:51:34.416Z,16.07
2018-08-19T00:54:04.984Z,14.87
2018-08-19T00:56:37.136Z,16.60
2018-08-19T00:59:09.556Z,15.50
2018-08-19T01:01:39.788Z,16.33
2018-08-19T01:04:10.744Z,31.43
2018-08-19T01:06:45.952Z,15.43
2018-08-19T01:09:16.764Z,16.57
2018-08-19T01:11:47.000Z,14.80
2018-08-19T01:14:17.235Z,13.70
2018-08-19T01:16:47.230Z,15.73
2018-08-19T01:19:19.427Z,16.07
2018-08-19T01:21:51.086Z,19.33
2018-08-19T01:24:21.929Z,16.30
2018-08-19T01:26:52.522Z,20.70
2018-08-19T01:29:49.878Z,16.20
2018-08-19T01:32:22.163Z,16.87
2018-08-19T01:34:52.780Z,17.67
2018-08-19T01:37:23.496Z,20.97
2018-08-19T01:39:54.205Z,18.30
2018-08-19T01:42:25.067Z,16.47
2018-08-19T01:44:56.163Z,19.87
2018-08-19T01:47:26.371Z,18.43
2018-08-19T01:49:56.755Z,19.93
2018-08-19T01:52:27.501Z,19.43
2018-08-19T01:54:58.425Z,20.60
2018-08-19T01:57:34.182Z,17.40
2018-08-19T02:00:06.471Z,19.05
2018-08-19T02:02:50.856Z,20.27
2018-08-19T02:05:21.942Z,20.20
2018-08-19T02:07:55.195Z,17.40
2018-08-19T02:10:28.778Z,22.23
2018-08-19T02:13:00.124Z,18.77
2018-08-19T02:15:31.589Z,21.80
2018-08-19T02:18:06.712Z,19.25
2018-08-19T02:20:40.994Z,17.07
2018-08-19T02:23:13.324Z,22.20
2018-08-19T02:25:48.724Z,16.50
2018-08-19T02:28:22.576Z,18.93
2018-08-19T02:30:58.317Z,24.23
2018-08-19T02:33:32.900Z,19.40
2018-08-19T02:36:08.655Z,20.27
2018-08-19T02:38:39.478Z,24.17
2018-08-19T02:41:10.084Z,17.77
2018-08-19T02:43:46.584Z,17.97
2018-08-19T02:46:17.290Z,17.93
2018-08-19T02:48:49.956Z,20.65
2018-08-19T02:51:21.608Z,17.50
2018-08-19T02:53:52.828Z,18.55
2018-08-19T02:56:22.942Z,21.67
2018-08-19T02:58:53.540Z,21.23
2018-08-19T03:01:24.022Z,20.33
2018-08-19T03:03:54.624Z,24.87
2018-08-19T03:06:26.173Z,16.50
2018-08-19T03:08:59.540Z,19.67
2018-08-19T03:11:31.347Z,17.70
2018-08-19T03:14:02.177Z,18.65
2018-08-19T03:16:34.712Z,18.70
2018-08-19T03:19:05.303Z,25.87
2018-08-19T03:21:35.442Z,20.87
2018-08-19T03:24:06.080Z,19.87
2018-08-19T03:26:36.642Z,23.33
2018-08-19T03:29:14.095Z,21.87
2018-08-19T03:31:48.052Z,14.27
2018-08-19T03:34:19.742Z,18.07
2018-08-19T03:36:49.951Z,17.40
2018-08-19T03:39:20.326Z,20.55
2018-08-19T03:41:51.173Z,15.97
2018-08-19T03:44:21.515Z,19.37
2018-08-19T03:46:51.881Z,20.27
2018-08-19T03:49:23.571Z,18.00
2018-08-19T03:51:54.525Z,19.23
2018-08-19T03:54:24.885Z,19.20
2018-08-19T03:56:54.885Z,17.63
2018-08-19T03:59:25.281Z,20.07
2018-08-19T04:01:55.490Z,15.45
2018-08-19T04:04:26.210Z,17.60
2018-08-19T04:06:56.813Z,18.97
2018-08-19T04:09:27.411Z,14.73
2018-08-19T04:12:09.058Z,16.53
2018-08-19T04:14:39.660Z,20.27
2018-08-19T04:17:13.737Z,17.77
2018-08-19T04:19:44.344Z,18.73
2018-08-19T04:22:14.605Z,18.00
2018-08-19T04:24:45.938Z,18.87
2018-08-19T04:27:16.776Z,20.93
2018-08-19T04:29:48.196Z,18.80
2018-08-19T04:32:24.803Z,19.43
2018-08-19T04:34:55.164Z,16.67
2018-08-19T04:37:25.048Z,20.20
2018-08-19T04:39:56.276Z,14.07
2018-08-19T04:42:28.051Z,14.57
2018-08-19T04:44:58.775Z,19.80
2018-08-19T04:47:34.048Z,16.03
2018-08-19T04:50:05.024Z,15.53
2018-08-19T04:52:35.122Z,18.30
2018-08-19T04:55:06.440Z,23.50
2018-08-19T04:57:36.680Z,17.10
2018-08-19T05:00:07.283Z,18.43
2018-08-19T05:02:38.447Z,17.63
2018-08-19T05:05:08.735Z,20.20
2018-08-19T05:07:39.455Z,19.10
2018-08-19T05:10:09.812Z,19.20
2018-08-19T05:12:40.416Z,13.65
2018-08-19T05:15:11.025Z,17.60
2018-08-19T05:17:41.756Z,22.60
2018-08-19T05:20:16.419Z,19.80
2018-08-19T05:22:46.413Z,14.93
2018-08-19T05:25:16.429Z,18.57
2018-08-19T05:27:52.782Z,17.27
2018-08-19T05:30:23.041Z,18.27
2018-08-19T05:32:58.187Z,18.57
2018-08-19T05:35:28.423Z,19.10
2018-08-19T05:37:59.802Z,18.40
2018-08-19T05:40:29.983Z,20.03
2018-08-19T05:43:00.359Z,17.97
2018-08-19T05:45:30.604Z,19.17
2018-08-19T05:48:07.427Z,17.05
2018-08-19T05:50:38.162Z,16.40
2018-08-19T05:53:08.407Z,15.20
2018-08-19T05:55:39.670Z,16.17
2018-08-19T05:58:10.195Z,14.90
2018-08-19T06:15:24.247Z,18.30
2018-08-19T06:17:54.979Z,22.43
2018-08-19T06:20:26.546Z,15.73
2018-08-19T06:22:57.621Z,20.53
2018-08-19T06:25:28.337Z,23.10
2018-08-19T06:28:00.312Z,20.30
2018-08-19T06:30:31.096Z,19.90
2018-08-19T06:33:02.084Z,24.83
2018-08-19T06:35:32.900Z,15.87
2018-08-19T06:38:04.936Z,17.47
2018-08-19T06:40:36.258Z,23.33
2018-08-19T06:43:22.221Z,20.57
2018-08-19T06:45:52.988Z,20.97
2018-08-19T06:48:24.144Z,20.93
2018-08-19T06:50:56.466Z,18.60
2018-08-19T06:53:30.519Z,17.00
2018-08-19T06:56:01.707Z,19.67
2018-08-19T06:58:33.276Z,19.63
2018-08-19T07:01:05.916Z,16.50
2018-08-19T07:03:37.214Z,16.73
2018-08-19T07:06:12.593Z,17.05
2018-08-19T07:08:43.838Z,18.77
2018-08-19T07:11:14.571Z,16.03
2018-08-19T07:13:45.420Z,15.60
2018-08-19T07:16:16.361Z,15.20
2018-08-19T07:18:47.781Z,19.60
2018-08-19T07:21:19.253Z,18.17
2018-08-19T07:23:50.724Z,16.90
2018-08-19T07:26:21.644Z,23.53
2018-08-19T07:28:52.494Z,17.77
2018-08-19T07:31:23.689Z,15.93
2018-08-19T07:33:54.530Z,14.60
2018-08-19T07:36:25.732Z,17.65
2018-08-19T07:38:57.818Z,13.73
2018-08-19T07:41:28.381Z,16.37
2018-08-19T07:43:59.318Z,16.63
2018-08-19T07:46:30.433Z,15.83
2018-08-19T07:49:01.620Z,13.73
2018-08-19T07:51:33.828Z,15.93
2018-08-19T07:54:04.764Z,15.40
2018-08-19T07:56:36.432Z,18.57
2018-08-19T07:59:10.627Z,14.93
2018-08-19T08:01:44.254Z,15.77
2018-08-19T08:04:17.703Z,15.83
2018-08-19T08:06:48.688Z,14.43
2018-08-19T08:09:19.745Z,12.97
2018-08-19T08:11:52.407Z,15.30
2018-08-19T08:14:29.141Z,11.13
2018-08-19T08:17:01.431Z,18.30
2018-08-19T08:19:33.483Z,15.10
2018-08-19T08:22:09.676Z,15.43
2018-08-19T08:24:42.321Z,14.57
2018-08-19T08:27:14.968Z,18.60
2018-08-19T08:29:46.882Z,15.10
2018-08-19T08:32:18.949Z,15.63
2018-08-19T08:34:49.534Z,13.53
2018-08-19T08:37:21.216Z,14.63
2018-08-19T08:40:01.434Z,11.80
2018-08-19T08:42:44.496Z,9.00
2018-08-19T08:45:17.871Z,13.13
2018-08-19T08:47:49.832Z,10.83
2018-08-19T08:50:20.395Z,10.17
2018-08-19T08:52:50.870Z,12.57
2018-08-19T08:55:21.942Z,10.57
2018-08-19T08:57:52.782Z,8.97
2018-08-19T09:00:23.872Z,9.47
2018-08-19T09:02:54.717Z,12.50
2018-08-19T09:05:26.653Z,11.07
2018-08-19T09:07:58.800Z,11.93
2018-08-19T09:10:30.482Z,11.47
2018-08-19T09:13:01.426Z,9.00
2018-08-19T09:15:33.018Z,7.93
2018-08-19T09:18:04.949Z,6.90
2018-08-19T09:20:36.234Z,6.57
2018-08-19T09:23:07.323Z,5.80
2018-08-19T09:25:37.804Z,8.00
2018-08-19T09:28:08.765Z,7.33
2018-08-19T09:30:41.516Z,7.73
2018-08-19T09:33:13.127Z,5.27
2018-08-19T09:35:45.887Z,6.70
2018-08-19T09:38:19.930Z,10.10
2018-08-19T09:40:51.527Z,12.33
2018-08-19T09:43:22.459Z,9.97
2018-08-19T09:45:55.004Z,10.43
2018-08-19T09:48:29.305Z,9.50
2018-08-19T09:51:10.092Z,9.23
2018-08-19T09:53:41.303Z,14.30
2018-08-19T09:56:12.627Z,8.30
2018-08-19T09:58:48.301Z,12.80
2018-08-19T10:01:24.901Z,8.47
2018-08-19T10:03:56.066Z,10.63
2018-08-19T10:06:27.671Z,10.07
2018-08-19T10:08:59.550Z,11.33
2018-08-19T10:11:30.257Z,11.03
2018-08-19T10:14:04.006Z,13.50
2018-08-19T10:16:44.061Z,10.10
2018-08-19T10:19:15.742Z,8.77
2018-08-19T10:21:46.828Z,11.30
2018-08-19T10:24:24.029Z,8.43
2018-08-19T10:26:55.110Z,12.00
2018-08-19T10:29:25.834Z,12.27
2018-08-19T10:31:59.188Z,8.83
2018-08-19T10:34:32.696Z,10.57
2018-08-19T10:37:04.358Z,9.37
2018-08-19T10:39:34.354Z,9.43
2018-08-19T10:42:18.396Z,9.53
2018-08-19T10:44:53.442Z,9.17
2018-08-19T10:47:24.558Z,9.67
2018-08-19T10:50:13.852Z,10.00
2018-08-19T10:52:46.124Z,10.13
2018-08-19T10:55:16.974Z,7.83
2018-08-19T10:57:47.566Z,6.97
2018-08-19T11:00:27.669Z,10.37
2018-08-19T11:03:17.576Z,9.10
2018-08-19T11:05:49.261Z,8.03
2018-08-19T11:08:22.256Z,8.77
2018-08-19T11:10:52.882Z,8.07
2018-08-19T11:13:26.290Z,7.93
2018-08-19T11:15:59.245Z,9.00
2018-08-19T11:18:43.029Z,7.73
2018-08-19T11:21:20.585Z,10.33
2018-08-19T11:23:51.305Z,9.00
2018-08-19T11:26:22.284Z,9.10
2018-08-19T11:28:55.631Z,8.10
2018-08-19T11:31:32.635Z,12.17
2018-08-19T11:34:06.511Z,7.50
2018-08-19T11:36:46.177Z,10.97
2018-08-19T11:39:17.847Z,8.03
2018-08-19T11:41:48.574Z,6.93
2018-08-19T11:44:19.775Z,6.77
2018-08-19T11:46:51.559Z,8.37
2018-08-19T11:49:22.522Z,6.77
2018-08-19T11:52:06.091Z,7.60
2018-08-19T11:54:57.615Z,7.67
2018-08-19T11:57:31.528Z,11.30
2018-08-19T12:00:02.386Z,7.37
2018-08-19T12:02:33.098Z,8.35
2018-08-19T12:05:04.308Z,8.37
2018-08-19T12:07:35.617Z,11.93
2018-08-19T12:10:06.822Z,9.67
2018-08-19T12:12:49.437Z,8.67
2018-08-19T12:15:19.787Z,6.57
2018-08-19T12:17:51.221Z,7.13
2018-08-19T12:20:27.357Z,7.90
2018-08-19T12:22:57.941Z,7.77
2018-08-19T12:25:28.563Z,10.30
2018-08-19T12:27:59.274Z,10.87
2018-08-19T12:30:32.987Z,7.80
2018-08-19T12:33:14.387Z,7.33
2018-08-19T12:37:14.333Z,8.77
2018-08-19T12:39:46.319Z,6.67
2018-08-19T12:42:17.167Z,9.17
2018-08-19T12:44:51.023Z,9.97
2018-08-19T12:47:27.622Z,8.77
2018-08-19T12:50:02.411Z,7.17
2018-08-19T12:52:34.112Z,6.87
2018-08-19T12:55:13.554Z,9.50
2018-08-19T12:57:45.243Z,9.53
2018-08-19T13:00:20.394Z,9.17
2018-08-19T13:02:53.309Z,6.17
2018-08-19T13:05:24.043Z,9.07
2018-08-19T13:07:54.877Z,9.20
2018-08-19T13:10:26.654Z,6.60
2018-08-19T13:12:58.574Z,7.70
2018-08-19T13:15:31.090Z,7.40
2018-08-19T13:18:01.970Z,8.60
2018-08-19T13:20:32.894Z,12.17
2018-08-19T13:23:04.720Z,11.83
2018-08-19T13:25:35.527Z,7.80
2018-08-19T13:28:06.860Z,6.23
2018-08-19T13:30:38.058Z,7.20
2018-08-19T13:33:09.863Z,9.27
2018-08-19T13:35:42.503Z,8.27
2018-08-19T13:38:18.099Z,8.20
2018-08-19T13:40:48.740Z,8.73
2018-08-19T13:43:20.056Z,9.03
2018-08-19T13:45:59.306Z,10.07
2018-08-19T13:48:30.862Z,8.37
2018-08-19T13:51:01.700Z,8.77
2018-08-19T13:53:32.058Z,8.53
2018-08-19T13:56:03.742Z,8.97
2018-08-19T13:58:34.585Z,8.00
2018-08-19T14:01:06.022Z,8.53
2018-08-19T14:03:36.626Z,12.33
2018-08-19T14:06:07.221Z,7.17
2018-08-19T14:08:37.995Z,8.53
2018-08-19T14:11:08.447Z,9.27
2018-08-19T14:13:38.546Z,10.13
2018-08-19T14:16:09.747Z,8.63
2018-08-19T14:18:40.461Z,6.87
2018-08-19T14:21:12.023Z,10.27
2018-08-19T14:23:43.477Z,9.73
2018-08-19T14:26:13.715Z,9.47
2018-08-19T14:28:44.311Z,10.83
2018-08-19T14:31:14.787Z,8.40
2018-08-19T14:33:45.270Z,10.60
2018-08-19T14:36:16.349Z,10.55
2018-08-19T14:38:46.594Z,10.53
2018-08-19T14:41:18.038Z,8.90
2018-08-19T14:44:05.203Z,10.67
2018-08-19T14:46:36.237Z,11.50
2018-08-19T14:49:07.600Z,9.93
2018-08-19T14:51:50.674Z,10.77
2018-08-19T14:54:22.870Z,9.93
2018-08-19T14:56:53.438Z,10.20
2018-08-19T14:59:23.806Z,8.17
2018-08-19T15:01:54.398Z,9.27
2018-08-19T15:04:26.201Z,12.83
2018-08-19T15:06:57.036Z,9.63
2018-08-19T15:09:33.460Z,9.53
2018-08-19T15:12:13.515Z,12.83
2018-08-19T15:14:44.972Z,11.20
2018-08-19T15:17:15.884Z,10.83
2018-08-19T15:19:50.230Z,12.13
2018-08-19T15:22:22.134Z,10.00
2018-08-19T15:24:52.994Z,10.83
2018-08-19T15:27:24.050Z,9.33
2018-08-19T15:29:56.495Z,10.83
2018-08-19T15:32:28.074Z,10.83
2018-08-19T15:34:59.102Z,11.53
2018-08-19T15:37:31.150Z,9.97
2018-08-19T15:40:02.224Z,10.90
2018-08-19T15:42:34.617Z,11.63
2018-08-19T15:45:05.813Z,9.80
2018-08-19T15:47:36.792Z,11.00
2018-08-19T15:50:20.946Z,10.07
2018-08-19T15:52:51.928Z,9.43
2018-08-19T15:55:22.380Z,11.27
2018-08-19T15:57:52.742Z,8.73
2018-08-19T16:00:23.479Z,12.03
2018-08-19T16:02:55.258Z,10.90
2018-08-19T16:05:26.335Z,10.60
2018-08-19T16:07:57.314Z,9.87
2018-08-19T16:10:28.757Z,10.33
2018-08-19T16:13:00.781Z,11.10
2018-08-19T16:15:32.704Z,7.93
2018-08-19T16:18:04.286Z,12.67
2018-08-19T16:20:35.228Z,9.97
2018-08-19T16:23:06.678Z,11.20
2018-08-19T16:25:37.148Z,8.10
2018-08-19T16:28:09.080Z,11.60
2018-08-19T16:30:41.377Z,12.95
2018-08-19T16:33:12.430Z,10.47
2018-08-19T16:35:43.185Z,9.70
2018-08-19T16:38:15.087Z,8.73
2018-08-19T16:40:46.149Z,9.10
2018-08-19T16:43:17.473Z,10.77
2018-08-19T16:45:48.573Z,8.20
2018-08-19T16:48:19.513Z,10.77
2018-08-19T16:50:50.622Z,9.27
2018-08-19T16:53:21.310Z,9.70
2018-08-19T16:55:51.916Z,11.03
2018-08-19T16:58:23.612Z,11.00
2018-08-19T17:00:54.438Z,12.97
2018-08-19T17:03:32.382Z,13.13
2018-08-19T17:06:03.571Z,10.60
2018-08-19T17:08:34.518Z,10.00
2018-08-19T17:11:05.850Z,13.07
2018-08-19T17:13:36.558Z,10.70
2018-08-19T17:16:09.005Z,10.50
2018-08-19T17:18:39.926Z,10.70
2018-08-19T17:21:11.980Z,11.23
2018-08-19T17:23:43.056Z,11.67
2018-08-19T17:26:20.244Z,9.60
2018-08-19T17:28:51.210Z,13.87
2018-08-19T17:31:21.930Z,11.70
2018-08-19T17:33:53.661Z,12.33
2018-08-19T17:36:30.377Z,10.17
2018-08-19T17:39:01.414Z,10.67
2018-08-19T17:41:32.372Z,8.10
2018-08-19T17:44:04.080Z,9.50
2018-08-19T17:46:35.248Z,8.67
2018-08-19T17:49:08.882Z,9.50
2018-08-19T17:51:39.823Z,10.00
2018-08-19T17:54:15.694Z,8.10
2018-08-19T17:56:46.913Z,9.50
2018-08-19T17:59:17.675Z,9.77
2018-08-19T18:01:48.957Z,10.43
2018-08-19T18:04:20.749Z,9.77
2018-08-19T18:06:51.512Z,10.67
2018-08-19T18:09:23.189Z,8.10
2018-08-19T18:12:00.604Z,10.97
2018-08-19T18:14:37.225Z,8.03
2018-08-19T18:17:08.624Z,8.67
2018-08-19T18:19:40.185Z,9.17
2018-08-19T18:22:12.110Z,10.30
2018-08-19T18:24:46.081Z,7.77
2018-08-19T18:27:17.761Z,11.00
2018-08-19T18:29:49.571Z,12.80
2018-08-19T18:32:21.359Z,9.87
2018-08-19T18:34:52.685Z,12.23
2018-08-19T18:37:23.910Z,11.50
2018-08-19T18:39:55.461Z,9.17
2018-08-19T18:42:39.725Z,8.97
2018-08-19T18:45:12.358Z,11.53
2018-08-19T18:47:51.731Z,11.87
2018-08-19T18:50:27.047Z,11.00
2018-08-19T18:52:58.718Z,11.13
2018-08-19T18:55:29.888Z,10.07
2018-08-19T18:58:01.478Z,12.20
2018-08-19T19:00:32.526Z,9.13
2018-08-19T19:03:03.762Z,10.80
2018-08-19T19:05:37.571Z,9.33
2018-08-19T19:08:17.420Z,11.07
2018-08-19T19:11:01.620Z,10.60
2018-08-19T19:13:32.168Z,9.73
2018-08-19T19:16:02.912Z,11.17
2018-08-19T19:18:36.023Z,9.43
2018-08-19T19:21:07.457Z,6.97
2018-08-19T19:23:40.485Z,6.97
2018-08-19T19:26:11.893Z,7.07
2018-08-19T19:28:43.237Z,7.80
2018-08-19T19:31:15.281Z,8.17
2018-08-19T19:33:46.593Z,4.23
2018-08-19T19:36:18.858Z,6.10
2018-08-19T19:38:55.110Z,6.33
2018-08-19T19:41:28.243Z,3.87
2018-08-19T19:43:59.822Z,4.03
2018-08-19T19:46:31.741Z,3.77
2018-08-19T19:49:02.921Z,4.10
2018-08-19T19:51:33.295Z,4.23
2018-08-19T19:54:05.794Z,4.97
2018-08-19T19:56:37.599Z,3.17
2018-08-19T19:59:09.157Z,4.83
2018-08-19T20:01:41.318Z,3.37
2018-08-19T20:04:12.763Z,2.97
2018-08-19T20:06:43.361Z,2.97
2018-08-19T20:09:14.696Z,7.80
2018-08-19T20:11:45.880Z,4.27
2018-08-19T20:14:16.482Z,4.40
2018-08-19T20:16:47.319Z,5.97
2018-08-19T20:19:18.789Z,5.57
2018-08-19T20:21:50.086Z,2.97
2018-08-19T20:24:22.019Z,5.67
2018-08-19T20:26:52.871Z,4.10
2018-08-19T20:29:23.940Z,4.70
2018-08-19T20:31:55.259Z,4.33
2018-08-19T20:34:25.501Z,3.93
2018-08-19T20:36:56.815Z,4.40
2018-08-19T20:39:27.533Z,8.93
2018-08-19T20:41:57.890Z,8.27
2018-08-19T20:44:28.899Z,3.80
2018-08-19T20:46:59.704Z,4.43
2018-08-19T20:49:31.383Z,6.03
2018-08-19T20:52:02.843Z,4.30
2018-08-19T20:54:34.308Z,4.73
2018-08-19T20:57:05.481Z,4.90
2018-08-19T20:59:37.388Z,4.03
2018-08-19T21:02:10.294Z,8.10
2018-08-19T21:04:41.586Z,4.23
2018-08-19T21:07:12.069Z,4.33
2018-08-19T21:09:43.154Z,4.67
2018-08-19T21:12:15.198Z,4.83
2018-08-19T21:14:46.401Z,4.13
2018-08-19T21:17:17.960Z,4.73
2018-08-19T21:19:49.876Z,5.63
2018-08-19T21:22:22.345Z,4.50
2018-08-19T21:24:55.664Z,4.43
2018-08-19T21:27:26.594Z,6.20
2018-08-19T21:29:57.697Z,5.50
2018-08-19T21:32:29.014Z,3.77
2018-08-19T21:35:00.202Z,4.13
2018-08-19T21:37:36.117Z,5.83
2018-08-19T21:40:07.764Z,6.60
2018-08-19T21:43:11.611Z,7.25
2018-08-19T21:45:42.573Z,5.97
2018-08-19T21:48:17.125Z,5.93
2018-08-19T21:50:48.217Z,5.73
2018-08-19T21:53:20.023Z,5.80
2018-08-19T21:55:53.136Z,6.20
2018-08-19T21:58:24.552Z,7.07
2018-08-19T22:01:02.162Z,6.27
2018-08-19T22:03:38.421Z,7.33
2018-08-19T22:06:10.418Z,6.97
2018-08-19T22:08:41.625Z,5.27
2018-08-19T22:11:12.601Z,4.93
2018-08-19T22:13:45.222Z,6.87
2018-08-19T22:16:16.092Z,6.47
2018-08-19T22:18:47.388Z,5.93
2018-08-19T22:21:25.341Z,5.20
2018-08-19T22:23:58.209Z,6.30
2018-08-19T22:26:30.110Z,7.13
2018-08-19T22:29:12.007Z,6.67
2018-08-19T22:31:45.880Z,6.97
2018-08-19T22:34:17.388Z,7.63
2018-08-19T22:36:48.610Z,8.70
2018-08-19T22:39:21.616Z,7.23
2018-08-19T22:41:53.155Z,8.73
2018-08-19T22:44:25.083Z,8.73
2018-08-19T22:46:57.636Z,6.33
2018-08-19T22:49:29.281Z,8.13
2018-08-19T22:52:18.124Z,8.63
2018-08-19T22:54:54.012Z,8.70
2018-08-19T22:57:27.168Z,9.37
2018-08-19T22:59:58.569Z,10.07
2018-08-19T23:02:31.084Z,9.23
2018-08-19T23:05:03.008Z,11.37
2018-08-19T23:07:34.216Z,10.63
2018-08-19T23:10:05.419Z,10.60
2018-08-19T23:12:36.375Z,11.93
2018-08-19T23:15:19.001Z,9.80
2018-08-19T23:17:52.845Z,9.23
2018-08-19T23:20:25.592Z,10.13
2018-08-19T23:22:56.660Z,9.67
2018-08-19T23:25:27.502Z,13.87
2018-08-19T23:27:57.981Z,9.55
2018-08-19T23:30:29.106Z,10.93
2018-08-19T23:32:59.682Z,10.27
2018-08-19T23:35:32.475Z,9.50
2018-08-19T23:38:03.630Z,10.67
2018-08-19T23:40:34.473Z,10.43
2018-08-19T23:43:06.165Z,13.07
2018-08-19T23:45:37.477Z,11.67
2018-08-19T23:48:08.697Z,8.97
2018-08-19T23:50:40.111Z,10.23
2018-08-19T23:53:12.067Z,11.17
2018-08-19T23:55:42.291Z,13.80
2018-08-19T23:58:13.249Z,11.03
